Time;durP1;ratioP1;P1;durP2;ratioP2;P2;SDS_P1;SDS_P2;PMS_P1;PMS_P2;Temp;Humidity;BMP_temperature;BMP_pressure;BME280_temperature;BME280_humidity;BME280_pressure;Samples;Min_cycle;Max_cycle;Signal;HPM_P1;HPM_P2
2023/08/14 00:00:48;;;;;;;5.10;3.55;;;18.50;99.90;;;-141.84;79.82;20960.25;5042419;28;20676;-64
2023/08/14 00:03:16;;;;;;;6.53;3.72;;;18.50;99.90;;;-141.84;79.84;20952.13;5040222;28;20257;-62
2023/08/14 00:05:45;;;;;;;9.13;3.53;;;18.50;99.90;;;-141.84;80.00;20933.81;5034169;28;20628;-65
2023/08/14 00:08:13;;;;;;;5.95;3.25;;;;;;;-141.84;79.64;20944.00;5022804;28;20234;-59
2023/08/14 00:10:42;;;;;;;4.22;3.30;;;;;;;-141.84;79.40;20968.38;5021283;28;20332;-59
2023/08/14 00:13:10;;;;;;;5.32;3.42;;;;;;;-141.84;79.46;20897.25;5033283;28;20201;-60
2023/08/14 00:15:38;;;;;;;5.63;3.47;;;;;;;-141.84;79.51;20960.25;5058514;28;20201;-59
2023/08/14 00:18:08;;;;;;;3.90;3.50;;;;;;;-141.84;79.66;20980.59;5046336;28;20559;-60
2023/08/14 00:20:37;;;;;;;3.58;3.13;;;;;;;-141.84;79.86;20923.66;5040985;28;20229;-59
2023/08/14 00:23:05;;;;;;;4.70;3.35;;;;;;;-141.84;79.90;20952.13;5041545;28;20233;-60
2023/08/14 00:25:33;;;;;;;6.47;3.50;;;;;;;-141.84;79.38;20958.22;5040353;28;20229;-60
2023/08/14 00:28:02;;;;;;;4.05;3.30;;;;;;;-141.84;79.59;20970.41;5033664;28;20244;-60
2023/08/14 00:30:31;;;;;;;5.18;3.17;;;;;;;-141.84;78.93;20962.28;5030864;28;20217;-60
2023/08/14 00:32:59;;;;;;;4.20;3.40;;;;;;;-141.84;78.76;20966.34;5045679;28;20266;-60
2023/08/14 00:35:29;;;;;;;4.72;3.05;;;;;;;-141.84;79.23;20952.13;5050167;28;20225;-60
2023/08/14 00:37:57;;;;;;;5.03;3.28;;;;;;;-141.84;79.86;20925.69;5033514;28;20252;-59
2023/08/14 00:40:26;;;;;;;5.32;3.47;;;;;;;-141.84;80.16;20935.88;5040622;28;20225;-61
2023/08/14 00:42:54;;;;;;;4.72;3.40;;;;;;;-141.84;79.63;20917.56;5040974;28;20233;-61
2023/08/14 00:45:23;;;;;;;5.40;3.38;;;;;;;-141.84;79.93;20907.41;5020768;28;20688;-60
2023/08/14 00:48:08;;;;;;;5.07;3.65;;;;;;;-141.84;79.45;20901.31;5038875;28;20771;-60
2023/08/14 00:50:38;;;;;;;5.75;3.33;;;;;;;-141.84;78.90;20937.91;5040880;28;20264;-59
2023/08/14 00:53:06;;;;;;;5.10;3.20;;;;;;;-141.84;78.92;20931.78;5041123;28;20256;-60
2023/08/14 00:55:35;;;;;;;4.72;3.25;;;;;;;-141.84;78.93;20895.19;5040969;28;20315;-59
2023/08/14 00:58:04;;;;;;;5.15;3.55;;;;;;;-141.84;79.48;20891.13;5032796;28;20787;-60
2023/08/14 01:00:34;;;;;;;4.03;3.33;;;;;;;-141.84;80.09;20866.75;5061026;28;20711;-61
2023/08/14 01:03:04;;;;;;;5.43;3.03;;;;;;;-141.84;80.75;20885.03;5053299;28;20229;-60
2023/08/14 01:05:33;;;;;;;3.33;3.03;;;;;;;-141.84;80.07;20864.72;5040756;28;20331;-60
2023/08/14 01:08:03;;;;;;;6.43;3.42;;;;;;;-141.84;80.42;20852.50;5033798;28;20237;-60
2023/08/14 01:10:41;;;;;;;3.97;3.15;;;;;;;-141.84;81.19;20870.81;5042642;28;20252;-59
2023/08/14 01:13:18;;;;;;;7.07;3.17;;;;;;;-141.84;80.62;20838.28;5041917;28;20289;-60
2023/08/14 01:15:50;;;;;;;3.92;3.45;;;;;;;-141.84;79.76;20878.94;5034886;28;20262;-59
2023/08/14 01:18:22;;;;;;;6.55;3.20;;;;;;;-141.84;79.31;20874.88;5042577;28;20622;-60
2023/08/14 01:21:02;;;;;;;4.32;3.08;;;;;;;-141.84;80.17;20854.53;5042504;28;20235;-60
2023/08/14 01:23:38;;;;;;;5.63;3.20;;;;;;;-141.84;80.77;20803.72;5042228;28;20282;-60
2023/08/14 01:26:09;;;;;;;5.53;3.65;;;;;;;-141.84;81.36;20850.47;5039301;28;20661;-60
2023/08/14 01:28:38;;;;;;;4.20;3.60;;;;;;;-141.84;81.75;20854.53;5046459;28;20212;-60
2023/08/14 01:31:06;;;;;;;4.35;3.53;;;;;;;-141.84;82.03;20787.47;5037983;28;20267;-59
2023/08/14 01:33:35;;;;;;;4.15;3.55;;;;;;;-141.84;82.19;20817.94;5042426;28;20308;-59
2023/08/14 01:36:13;;;;;;;3.50;3.20;;;;;;;-141.84;82.19;20834.22;5034831;28;20743;-60
2023/08/14 01:38:50;;;;;;;4.15;3.40;;;;;;;-141.84;82.32;20801.69;5042225;28;20280;-60
2023/08/14 01:41:27;;;;;;;6.60;3.97;;;;;;;-141.84;82.65;20809.81;5043567;28;20252;-59
2023/08/14 01:43:59;;;;;;;4.00;3.60;;;;;;;-141.84;82.30;20848.44;5038494;28;20308;-60
2023/08/14 01:46:29;;;;;;;4.28;3.88;;;;;;;-141.84;81.87;20834.22;5045854;28;20236;-60
2023/08/14 01:49:00;;;;;;;4.20;3.70;;;;;;;-141.84;81.80;20807.78;5045944;28;20205;-60
2023/08/14 01:51:29;;;;;;;6.00;3.80;;;;;;;-141.84;82.14;20817.94;5046574;28;20703;-59
2023/08/14 01:53:58;;;;;;;4.28;3.60;;;;;;;-141.84;82.54;20834.22;5038517;28;20307;-59
2023/08/14 01:56:27;;;;;;;4.65;3.50;;;;;;;-141.84;82.56;20777.28;5046170;28;20320;-59
2023/08/14 01:58:56;;;;;;;3.85;3.28;;;;;;;-141.84;82.89;20805.75;5053033;28;20259;-59
2023/08/14 02:01:24;;;;;;;5.00;3.58;;;;;;;-141.84;82.76;20783.41;5065896;28;20598;-59
2023/08/14 02:03:53;;;;;;;4.55;3.70;;;;;;;-141.84;82.54;20781.38;5043914;28;20363;-61
2023/08/14 02:06:22;;;;;;;4.43;3.55;;;;;;;-141.84;82.50;20828.13;5046026;28;20230;-60
2023/08/14 02:08:50;;;;;;;4.13;3.33;;;;;;;-141.84;82.62;20773.22;5045829;28;20324;-61
2023/08/14 02:11:19;;;;;;;4.00;3.60;;;;;;;-141.84;82.46;20795.59;5045499;28;20316;-60
2023/08/14 02:13:48;;;;;;;4.05;3.65;;;;;;;-141.84;82.78;20797.63;5037979;28;20244;-59
2023/08/14 02:16:17;;;;;;;3.85;3.28;;;;;;;-141.84;83.10;20775.25;5045808;28;20695;-60
2023/08/14 02:18:46;;;;;;;3.75;3.45;;;;;;;-141.84;83.34;20785.44;5045906;28;20209;-61
2023/08/14 02:21:14;;;;;;;4.88;3.60;;;;;;;-141.84;83.47;20769.16;5045762;28;20271;-61
2023/08/14 02:23:43;;;;;;;6.57;3.80;;;;;;;-141.84;83.51;20767.13;5038038;28;20676;-60
2023/08/14 02:26:11;;;;;;;7.28;4.05;;;;;;;-141.84;83.73;20793.56;5055653;28;20236;-61
2023/08/14 02:28:40;;;;;;;5.15;3.28;;;;;;;-141.84;84.03;20744.78;5064970;28;20315;-60
2023/08/14 02:31:10;;;;;;;6.78;3.70;;;;;;;-141.84;84.32;20748.84;5049594;28;20233;-60
2023/08/14 02:33:39;;;;;;;4.32;3.50;;;;;;;-141.84;83.99;20807.78;5045612;28;20241;-59
2023/08/14 02:36:07;;;;;;;5.78;3.95;;;;;;;-141.84;84.25;20765.09;5042733;28;20686;-60
2023/08/14 02:38:36;;;;;;;3.85;3.55;;;;;;;-141.84;84.46;20767.13;5045082;28;20280;-59
2023/08/14 02:41:06;;;;;;;4.80;3.50;;;;;;;-141.84;83.54;20783.41;5045444;28;20320;-60
2023/08/14 02:43:34;;;;;;;4.93;3.78;;;;;;;-141.84;83.36;20791.53;5045017;28;20229;-60
2023/08/14 02:46:03;;;;;;;7.18;4.10;;;;;;;-141.84;83.83;20793.56;5037671;28;20300;-61
2023/08/14 02:48:33;;;;;;;6.72;3.90;;;;;;;-141.84;83.67;20777.28;5045119;28;20608;-60
2023/08/14 02:51:02;;;;;;;6.25;3.47;;;;;;;-141.84;83.35;20779.31;5045106;28;20324;-61
2023/08/14 02:53:30;;;;;;;5.50;3.47;;;;;;;-141.84;83.24;20773.22;5043665;28;20233;-60
2023/08/14 02:55:59;;;;;;;4.53;3.83;;;;;;;-141.84;83.07;20763.06;5037139;28;20231;-61
2023/08/14 02:58:27;;;;;;;6.72;3.90;;;;;;;-141.84;82.93;20787.47;5047918;28;20762;-59
2023/08/14 03:00:56;;;;;;;5.18;3.88;;;;;;;-141.84;83.44;20801.69;5065107;28;20752;-61
2023/08/14 03:03:25;;;;;;;6.22;3.67;;;;;;;-141.84;83.34;20797.63;5054580;28;20570;-59
2023/08/14 03:05:59;;;;;;;4.18;3.78;;;;;;;-141.84;83.30;20789.50;5037020;28;20228;-60
2023/08/14 03:08:28;;;;;;;5.53;3.83;;;;;;;-141.84;83.49;20756.97;5031781;28;20305;-62
2023/08/14 03:10:56;;;;;;;3.95;3.50;;;;;;;-141.84;83.54;20773.22;5033129;28;20294;-61
2023/08/14 03:13:25;;;;;;;4.10;3.70;;;;;;;-141.84;83.71;20759.00;5044316;28;20239;-61
2023/08/14 03:15:53;;;;;;;4.40;3.53;;;;;;;-141.84;83.89;20777.28;5037564;28;20213;-60
2023/08/14 03:18:22;;;;;;;4.18;3.67;;;;;;;-141.84;84.24;20752.91;5044635;28;20691;-61
2023/08/14 03:20:50;;;;;;;6.03;3.95;;;;;;;-141.84;84.37;20754.94;5044250;28;20267;-61
2023/08/14 03:23:20;;;;;;;5.50;4.00;;;;;;;-141.84;84.44;20787.47;5061636;28;20228;-61
2023/08/14 03:25:49;;;;;;;6.22;3.97;;;;;;;-141.84;84.27;20750.88;5044700;28;20233;-61
2023/08/14 03:28:17;;;;;;;7.93;4.38;;;;;;;-141.84;84.07;20746.81;5045528;28;20240;-60
2023/08/14 03:30:46;;;;;;;5.28;4.20;;;;;;;-141.84;84.72;20726.47;5051579;28;20244;-60
2023/08/14 03:33:14;;;;;;;4.93;3.97;;;;;;;-141.84;85.22;20730.53;5043656;28;20593;-60
2023/08/14 03:35:43;;;;;;;6.70;4.10;;;;;;;-141.84;84.91;20726.47;5036582;28;20744;-62
2023/08/14 03:38:11;;;;;;;6.13;3.85;;;;;;;-141.84;84.90;20710.22;5043847;28;20325;-60
2023/08/14 03:40:41;;;;;;;5.60;4.15;;;;;;;-141.84;85.16;20726.47;5044287;28;20225;-61
2023/08/14 03:43:10;;;;;;;4.40;4.00;;;;;;;-141.84;85.04;20738.66;5043915;28;20248;-60
2023/08/14 03:45:38;;;;;;;5.57;4.32;;;;;;;-141.84;85.01;20738.66;5044525;28;20676;-60
2023/08/14 03:48:07;;;;;;;4.93;4.20;;;;;;;-141.84;85.17;20724.44;5043069;28;20267;-60
2023/08/14 03:50:35;;;;;;;5.25;4.43;;;;;;;-141.84;84.97;20732.56;5043714;28;20229;-59
2023/08/14 03:53:04;;;;;;;5.00;4.50;;;;;;;-141.84;85.47;20712.25;5044122;28;20225;-61
2023/08/14 03:55:32;;;;;;;6.75;4.40;;;;;;;-141.84;85.39;20718.34;5043291;28;20303;-61
2023/08/14 03:58:02;;;;;;;6.68;4.65;;;;;;;-141.84;84.96;20740.69;5035560;28;20325;-59
2023/08/14 04:00:31;;;;;;;5.15;4.22;;;;;;;-141.84;84.17;20736.63;5064310;28;20544;-61
2023/08/14 04:02:59;;;;;;;6.10;4.18;;;;;;;-141.84;84.69;20704.13;5053741;28;20224;-59
2023/08/14 04:05:28;;;;;;;5.63;4.68;;;;;;;-141.84;85.20;20748.84;5043276;28;20241;-59
2023/08/14 04:07:56;;;;;;;6.45;4.25;;;;;;;-141.84;84.97;20736.63;5035905;28;20261;-60
2023/08/14 04:10:25;;;;;;;7.47;4.47;;;;;;;-141.84;84.76;20718.34;5043618;28;20268;-60
2023/08/14 04:12:54;;;;;;;5.90;4.20;;;;;;;-141.84;84.91;20763.06;5044206;28;20201;-60
2023/08/14 04:15:28;;;;;;;4.80;4.40;;;;;;;-141.84;85.04;20724.44;5023775;28;20724;-60
2023/08/14 04:17:56;;;;;;;6.70;4.43;;;;;;;-141.84;84.90;20777.28;5019715;28;20316;-59
2023/08/14 04:20:25;;;;;;;5.28;4.18;;;;;;;-141.84;85.04;20748.84;5043064;28;20631;-60
2023/08/14 04:22:54;;;;;;;5.95;4.57;;;;;;;-141.84;84.97;20746.81;5051771;28;20657;-60
2023/08/14 04:25:22;;;;;;;6.95;4.60;;;;;;;-141.84;84.94;20769.16;5054239;28;20232;-59
2023/08/14 04:27:50;;;;;;;6.55;4.07;;;;;;;-141.84;84.80;20769.16;5035693;28;20288;-60
2023/08/14 04:30:19;;;;;;;4.90;3.92;;;;;;;-141.84;84.67;20779.31;5051619;28;20229;-60
2023/08/14 04:32:49;;;;;;;4.63;3.83;;;;;;;-141.84;84.48;20783.41;5042936;28;20762;-60
2023/08/14 04:35:18;;;;;;;6.65;4.03;;;;;;;-141.84;83.89;20797.63;5043040;28;20295;-61
2023/08/14 04:37:46;;;;;;;5.10;4.50;;;;;;;-141.84;83.30;20803.72;5035362;28;20229;-60
2023/08/14 04:40:15;;;;;;;5.80;4.47;;;;;;;-141.84;83.21;20817.94;5042609;28;20296;-60
2023/08/14 04:42:43;;;;;;;7.68;4.50;;;;;;;-141.84;82.51;20854.53;5043720;28;20213;-60
2023/08/14 04:45:12;;;;;;;4.85;4.35;;;;;;;-141.84;81.75;20878.94;5042429;28;20247;-61
2023/08/14 04:47:41;;;;;;;5.43;4.40;;;;;;;-141.84;81.20;20864.72;5040624;28;20697;-59
2023/08/14 04:50:11;;;;;;;6.00;4.30;;;;;;;-141.84;81.16;20901.31;5042262;28;20237;-60
2023/08/14 04:52:39;;;;;;;4.28;3.90;;;;;;;-141.84;81.15;20913.50;5043150;28;20229;-59
2023/08/14 04:55:08;;;;;;;7.43;4.20;;;;;;;-141.84;79.26;20976.53;5042665;28;20205;-60
2023/08/14 04:57:37;;;;;;;5.03;4.20;;;;;;;-141.84;79.10;20990.75;5043126;28;20268;-60
2023/08/14 05:00:07;;;;;;;5.00;4.20;;;;;;;-141.84;78.66;21009.03;5036271;28;20770;-59
2023/08/14 05:02:35;;;;;;;6.43;4.10;;;;;;;-141.84;77.83;21021.25;5042439;28;20252;-60
2023/08/14 05:05:04;;;;;;;5.38;4.20;;;;;;;-141.84;77.08;21092.41;5042569;28;20320;-59
2023/08/14 05:07:34;;;;;;;4.75;3.92;;;;;;;-141.84;77.09;21090.38;5042193;28;20256;-60
2023/08/14 05:10:03;;;;;;;5.40;3.90;;;;;;;-141.84;77.05;21106.63;5034668;28;20623;-59
2023/08/14 05:12:31;;;;;;;4.15;3.70;;;;;;;-141.84;76.28;21120.88;5042261;28;20299;-60
2023/08/14 05:15:00;;;;;;;7.43;4.40;;;;;;;-141.84;75.65;21131.03;5053047;28;20216;-61
2023/08/14 05:17:28;;;;;;;4.95;3.85;;;;;;;-141.84;75.35;21163.56;5061995;28;20270;-60
2023/08/14 05:19:57;;;;;;;5.35;4.55;;;;;;;-141.84;74.96;21175.75;5054448;28;20235;-60
2023/08/14 05:22:25;;;;;;;5.38;4.10;;;;;;;-141.84;74.33;21218.44;5062551;28;20315;-60
2023/08/14 05:24:55;;;;;;;5.47;3.67;;;;;;;-141.84;74.41;21220.47;5057778;28;20766;-60
2023/08/14 05:27:23;;;;;;;5.25;3.60;;;;;;;-141.84;74.33;21259.13;5042580;28;20283;-60
2023/08/14 05:29:52;;;;;;;4.55;3.65;;;;;;;-141.84;74.24;21344.50;5043986;28;20655;-60
2023/08/14 05:32:21;;;;;;;4.90;3.90;;;;;;;-141.84;73.00;21356.69;5042463;28;20316;-60
2023/08/14 05:34:49;;;;;;;4.40;3.67;;;;;;;-141.84;72.18;21421.75;5041477;28;20746;-61
2023/08/14 05:37:18;;;;;;;5.22;3.80;;;;;;;-141.84;71.56;21450.22;5042394;28;20766;-61
2023/08/14 05:39:46;;;;;;;4.65;3.33;;;;;;;-141.84;70.30;21517.31;5035105;28;20228;-61
2023/08/14 05:42:16;;;;;;;5.70;3.88;;;;;;;-141.84;69.85;21570.19;5042018;28;20264;-60
2023/08/14 05:44:45;;;;;;;5.97;3.53;;;;;;;-141.84;68.66;21602.72;5033457;28;20240;-60
2023/08/14 05:47:13;;;;;;;4.85;3.97;;;;;;;-141.84;68.37;21598.66;5022209;28;20308;-59
2023/08/14 05:49:42;;;;;;;5.75;3.38;;;;;;;-141.84;68.26;21637.28;5015872;28;20329;-62
2023/08/14 05:52:10;;;;;;;5.07;3.72;;;;;;;-141.84;68.20;21610.84;5022297;28;20256;-60
2023/08/14 05:54:39;;;;;;;6.63;3.40;;;;;;;-141.84;68.24;21614.94;5025144;28;20692;-60
2023/08/14 05:57:08;;;;;;;4.95;3.50;;;;;;;-141.84;67.63;21641.34;5042113;28;20243;-60
2023/08/14 05:59:37;;;;;;;6.55;3.78;;;;;;;-141.84;66.92;21657.63;5054909;28;20250;-60
2023/08/14 06:02:06;;;;;;;8.75;3.78;;;;;;;-141.84;66.69;21718.63;5055346;28;20319;-60
2023/08/14 06:04:36;;;;;;;5.80;3.40;;;;;;;-141.84;66.30;21793.84;5041708;28;20286;-61
2023/08/14 06:07:05;;;;;;;5.25;3.47;;;;;;;-141.84;64.79;21885.38;5041812;28;20236;-61
2023/08/14 06:09:33;;;;;;;6.43;3.70;;;;;;;-141.84;64.09;21938.22;5042608;28;20212;-60
2023/08/14 06:12:02;;;;;;;6.65;3.88;;;;;;;-141.84;63.87;21978.91;5051971;28;20607;-60
2023/08/14 06:14:30;;;;;;;5.35;3.33;;;;;;;-141.84;62.30;21978.91;5061828;28;20664;-60
2023/08/14 06:17:00;;;;;;;5.28;3.00;;;;;;;-141.84;61.73;22015.50;5062083;28;20231;-60
2023/08/14 06:19:28;;;;;;;3.80;3.40;;;;;;;-141.84;62.53;21989.06;5054431;28;20227;-61
2023/08/14 06:21:57;;;;;;;4.68;3.53;;;;;;;-141.84;62.04;22007.38;5053732;28;20204;-59
2023/08/14 06:24:28;;;;;;;4.55;3.10;;;;;;;-141.84;61.87;22023.63;5060194;28;20225;-61
2023/08/14 06:26:57;;;;;;;4.30;3.10;;;;;;;-141.84;61.67;22017.53;5038721;28;20222;-61
2023/08/14 06:29:25;;;;;;;4.22;3.08;;;;;;;-141.84;61.97;22023.63;5053861;28;20228;-61
2023/08/14 06:31:54;;;;;;;3.42;2.63;;;;;;;-141.84;61.61;22043.97;5029031;28;20264;-62
2023/08/14 06:34:24;;;;;;;3.97;3.05;;;;;;;-141.84;62.22;22033.81;5025070;28;20234;-62
2023/08/14 06:36:52;;;;;;;7.25;3.03;;;;;;;-141.84;61.06;22088.72;5025453;28;20421;-63
2023/08/14 06:39:21;;;;;;;3.63;3.10;;;;;;;-141.84;60.98;22102.94;5044824;28;20792;-61
2023/08/14 06:41:49;;;;;;;4.18;3.00;;;;;;;-141.84;60.35;22159.88;5021661;28;20777;-61
2023/08/14 06:44:18;;;;;;;3.55;3.00;;;;;;;-141.84;59.55;22196.50;5036400;28;20316;-62
2023/08/14 06:46:46;;;;;;;3.53;2.75;;;;;;;-141.84;59.37;22218.84;5044272;28;20593;-62
2023/08/14 06:49:15;;;;;;;5.60;2.92;;;;;;;-141.84;59.18;22237.16;5044690;28;20209;-61
2023/08/14 06:51:45;;;;;;;3.63;2.63;;;;;;;-141.84;59.70;22220.91;5026869;28;20216;-60
2023/08/14 06:54:13;;;;;;;5.85;2.95;;;;;;;-141.84;59.71;22214.78;5043920;28;20319;-61
2023/08/14 06:56:42;;;;;;;6.22;3.00;;;;;;;-141.84;59.57;22259.53;5042330;28;20604;-63
2023/08/14 06:59:10;;;;;;;5.82;3.13;;;;;;;-141.84;58.91;22285.97;5043888;28;20316;-62
2023/08/14 07:01:38;;;;;;;3.05;2.85;;;;;;;-141.84;58.71;22322.56;5038628;28;20308;-63
2023/08/14 07:04:07;;;;;;;3.35;3.03;;;;;;;-141.84;57.99;22330.72;5023062;28;20214;-63
2023/08/14 07:06:35;;;;;;;3.50;2.83;;;;;;;-141.84;58.18;22324.59;5024404;28;20713;-63
2023/08/14 07:09:05;;;;;;;3.53;2.90;;;;;;;-141.84;57.98;22342.91;5042310;28;20232;-60
2023/08/14 07:11:38;;;;;;;4.45;2.97;;;;;;;-141.84;57.15;22426.28;5044336;28;20229;-60
2023/08/14 07:14:07;;;;;;;3.75;2.65;;;;;;;-141.84;56.73;22440.53;5042475;28;20645;-61
2023/08/14 07:16:36;;;;;;;3.75;2.63;;;;;;;-141.84;56.31;22521.88;5039043;28;20229;-59
2023/08/14 07:19:05;;;;;;;3.05;2.50;;;;;;;-141.84;54.74;22619.50;5025970;28;20295;-59
2023/08/14 07:21:33;;;;;;;4.82;2.70;;;;;;;-141.84;54.84;22603.22;5044258;28;20209;-60
2023/08/14 07:24:02;;;;;;;2.65;2.33;;;;;;;-141.84;53.29;22684.59;5036189;28;20328;-65
2023/08/14 07:26:31;;;;;;;3.17;2.25;;;;;;;-141.84;52.90;22692.72;5043779;28;20265;-65
2023/08/14 07:29:00;;;;;;;3.65;2.53;;;;;;;-141.84;53.04;22747.63;5043514;28;20727;-65
2023/08/14 07:31:28;;;;;;;4.97;2.40;;;;;;;-141.84;53.60;22690.69;5024685;28;20534;-63
2023/08/14 07:33:57;;;;;;;2.95;2.45;;;;;;;-141.84;53.62;22698.81;5016345;28;20213;-62
2023/08/14 07:36:25;;;;;;;3.13;2.60;;;;;;;-141.84;53.53;22743.56;5022567;28;20705;-62
2023/08/14 07:38:54;;;;;;;2.67;2.45;;;;;;;-141.84;53.27;22767.97;5003374;28;20238;-62
2023/08/14 07:41:22;;;;;;;4.78;2.10;;;;;;;-141.84;52.05;22885.94;5015962;28;20225;-60
2023/08/14 07:43:52;;;;;;;2.60;2.20;;;;;;;-141.84;52.37;22841.19;5016321;28;20222;-60
2023/08/14 07:46:20;;;;;;;3.20;2.85;;;;;;;-141.84;52.16;22843.22;5023761;28;20244;-60
2023/08/14 07:48:49;;;;;;;2.50;2.30;;;;;;;-141.84;52.06;22918.50;5039760;28;20275;-61
2023/08/14 07:51:19;;;;;;;3.08;2.05;;;;;;;-141.84;51.21;22896.13;5043111;28;20225;-59
2023/08/14 07:53:48;;;;;;;2.72;2.40;;;;;;;-141.84;50.46;22938.81;5035633;28;20228;-60
2023/08/14 07:56:16;;;;;;;3.92;2.05;;;;;;;-141.84;50.67;22853.41;5031835;28;20226;-60
2023/08/14 07:58:44;;;;;;;3.47;2.30;;;;;;;-141.84;50.66;22792.38;5024544;28;20260;-61
2023/08/14 08:01:14;;;;;;;4.75;2.45;;;;;;;-141.84;50.88;22810.69;5025951;28;20210;-60
2023/08/14 08:03:43;;;;;;;3.08;2.22;;;;;;;-141.84;50.14;22770.00;5046620;28;20668;-60
2023/08/14 08:06:12;;;;;;;3.35;2.30;;;;;;;-141.84;49.37;22778.16;5046967;28;20329;-59
2023/08/14 08:08:40;;;;;;;1.90;1.80;;;;;;;-141.84;50.74;22700.84;5028232;28;20763;-61
2023/08/14 08:11:13;;;;;;;2.60;2.40;;;;;;;-141.84;50.66;22694.75;5034114;28;20235;-61
2023/08/14 08:13:42;;;;;;;3.55;2.10;;;;;;;-141.84;51.04;22652.03;5033514;28;20230;-62
2023/08/14 08:16:10;;;;;;;2.55;2.15;;;;;;;-141.84;51.02;22623.56;5026048;28;20683;-59
2023/08/14 08:18:40;;;;;;;3.13;2.40;;;;;;;-141.84;51.89;22595.09;5043180;28;20208;-60
2023/08/14 08:21:09;;;;;;;3.22;2.33;;;;;;;-141.84;52.42;22572.72;5024422;28;20225;-62
2023/08/14 08:23:37;;;;;;;2.50;2.30;;;;;;;-141.84;52.66;22515.78;5035923;28;20225;-61
2023/08/14 08:26:05;;;;;;;3.58;2.45;;;;;;;-141.84;53.34;22601.19;5037184;28;20232;-61
2023/08/14 08:28:34;;;;;;;2.60;2.40;;;;;;;-141.84;53.45;22599.16;5048211;28;20231;-61
2023/08/14 08:31:03;;;;;;;4.50;2.50;;;;;;;-141.84;53.70;22586.97;5046427;28;20225;-62
2023/08/14 08:33:32;;;;;;;3.50;2.03;;;;;;;-141.84;53.98;22625.59;5013843;28;20249;-61
2023/08/14 08:36:02;;;;;;;6.45;3.03;;;;;;;-141.84;53.21;22692.72;5012836;28;20755;-61
2023/08/14 08:38:30;;;;;;;2.60;2.40;;;;;;;-141.84;53.01;22761.88;5022370;28;20226;-60
2023/08/14 08:41:02;;;;;;;5.05;2.40;;;;;;;-141.84;53.37;22747.63;5022703;28;20316;-60
2023/08/14 08:43:32;;;;;;;3.67;2.30;;;;;;;-141.84;52.87;22774.06;5025681;28;20225;-62
2023/08/14 08:46:04;;;;;;;3.05;2.20;;;;;;;-141.84;53.04;22790.34;5035151;28;20214;-61
2023/08/14 08:48:37;;;;;;;3.15;2.60;;;;;;;-141.84;52.53;22831.03;5042437;28;20258;-62
2023/08/14 08:51:10;;;;;;;3.20;2.35;;;;;;;-141.84;52.68;22831.03;5041882;28;20682;-61
2023/08/14 08:53:39;;;;;;;2.75;2.55;;;;;;;-141.84;52.58;22824.94;5042530;28;20568;-61
2023/08/14 08:56:08;;;;;;;4.53;2.70;;;;;;;-141.84;52.58;22859.50;5040186;28;20241;-60
2023/08/14 08:58:36;;;;;;;2.40;2.20;;;;;;;-141.84;51.28;22938.81;5046599;28;20221;-61
2023/08/14 09:01:06;;;;;;;2.85;2.40;;;;;;;-141.84;51.90;22861.53;5062410;28;20213;-60
2023/08/14 09:03:34;;;;;;;3.35;2.33;;;;;;;-141.84;51.91;22885.94;5048311;28;20300;-58
2023/08/14 09:06:03;;;;;;;2.58;2.20;;;;;;;-141.84;51.88;22951.03;5033888;28;21695;-60
2023/08/14 09:08:33;;;;;;;4.80;2.60;;;;;;;-141.84;51.19;22993.75;5029169;28;20588;-59
2023/08/14 09:11:01;;;;;;;4.60;2.60;;;;;;;-141.84;50.94;22997.81;5031594;28;20320;-60
2023/08/14 09:13:30;;;;;;;3.92;2.20;;;;;;;-141.84;51.23;22985.59;5037648;28;20245;-60
2023/08/14 09:16:01;;;;;;;5.38;2.60;;;;;;;-141.84;51.14;23054.75;5015606;28;22532;-60
2023/08/14 09:18:31;;;;;;;2.42;2.20;;;;;;;-141.84;51.23;23034.44;5039043;28;20662;-61
2023/08/14 09:21:02;;;;;;;2.60;2.40;;;;;;;-141.84;51.57;23109.69;5022311;28;20225;-62
2023/08/14 09:23:34;;;;;;;3.47;2.45;;;;;;;-141.84;51.40;23148.34;5035452;28;20681;-61
2023/08/14 09:26:03;;;;;;;3.33;2.50;;;;;;;-141.84;51.68;23119.84;5034684;28;20332;-62
2023/08/14 09:28:32;;;;;;;2.70;2.40;;;;;;;-141.84;51.88;23144.25;5045479;28;20224;-62
2023/08/14 09:31:12;;;;;;;3.30;2.22;;;;;;;-141.84;51.94;23150.38;5042586;28;20208;-63
2023/08/14 09:33:41;;;;;;;3.25;2.45;;;;;;;-141.84;51.73;23162.56;5039601;28;20311;-62
2023/08/14 09:36:12;;;;;;;3.42;2.80;;;;;;;-141.84;51.67;23209.34;5041769;28;20240;-62
2023/08/14 09:38:42;;;;;;;2.80;2.60;;;;;;;-141.84;51.67;23278.50;5042063;28;20256;-60
2023/08/14 09:41:11;;;;;;;4.25;2.53;;;;;;;-141.84;51.54;23284.63;5041795;28;20256;-60
2023/08/14 09:43:40;;;;;;;3.00;2.70;;;;;;;-141.84;51.21;23294.78;5042017;28;20251;-61
2023/08/14 09:46:12;;;;;;;2.80;2.58;;;;;;;-141.84;51.83;23280.56;5041436;28;20205;-63
2023/08/14 09:48:42;;;;;;;3.45;2.85;;;;;;;-141.84;51.45;23296.81;5042436;28;20229;-63
2023/08/14 09:51:12;;;;;;;2.80;2.53;;;;;;;-141.84;51.42;23274.44;5041886;28;20229;-60
2023/08/14 09:53:50;;;;;;;3.50;3.00;;;;;;;-141.84;51.33;23298.84;5039783;28;20233;-60
2023/08/14 09:56:19;;;;;;;3.92;2.95;;;;;;;-141.84;50.92;23329.38;5041907;28;20236;-62
2023/08/14 09:58:49;;;;;;;3.53;2.90;;;;;;;-141.84;50.30;23422.94;5047514;28;20232;-62
2023/08/14 10:01:19;;;;;;;4.45;2.90;;;;;;;-141.84;50.81;23420.91;5061784;28;20309;-61
2023/08/14 10:03:50;;;;;;;5.68;2.70;;;;;;;-141.84;50.14;23453.47;5042072;28;20312;-62
2023/08/14 10:06:19;;;;;;;4.15;2.70;;;;;;;-141.84;50.27;23469.72;5045385;28;20324;-62
2023/08/14 10:08:54;;;;;;;4.07;2.83;;;;;;;-141.84;50.51;23508.38;5045045;28;20241;-61
2023/08/14 10:11:26;;;;;;;2.72;2.50;;;;;;;-141.84;50.47;23534.84;5045649;28;20235;-64
2023/08/14 10:13:59;;;;;;;2.78;2.55;;;;;;;-141.84;50.25;23583.66;5037683;28;20751;-61
2023/08/14 10:16:32;;;;;;;3.15;2.78;;;;;;;-141.84;49.78;23616.19;5041166;28;20309;-61
2023/08/14 10:19:05;;;;;;;3.88;3.00;;;;;;;-141.84;49.45;23679.28;5025114;28;20682;-62
2023/08/14 10:21:35;;;;;;;3.53;2.65;;;;;;;-141.84;49.54;23652.81;5025948;28;20752;-62
2023/08/14 10:24:05;;;;;;;4.28;3.03;;;;;;;-141.84;49.37;23803.38;5018151;28;20741;-63
2023/08/14 10:26:35;;;;;;;3.17;2.88;;;;;;;-141.84;49.07;23978.34;5025208;28;20661;-61
2023/08/14 10:29:04;;;;;;;3.58;2.72;;;;;;;-141.84;48.91;23903.06;5033188;28;20233;-63
2023/08/14 10:31:33;;;;;;;3.15;2.90;;;;;;;-141.84;49.24;23825.75;5030487;28;20247;-62
2023/08/14 10:34:04;;;;;;;4.45;2.72;;;;;;;-141.84;49.55;23781.00;5037141;28;20827;-61
2023/08/14 10:36:32;;;;;;;3.08;2.80;;;;;;;-141.84;50.19;23742.34;5045284;28;20215;-62
2023/08/14 10:39:09;;;;;;;3.75;2.90;;;;;;;-141.84;50.26;23774.88;5044720;28;20312;-63
2023/08/14 10:41:38;;;;;;;3.42;2.67;;;;;;;-141.84;50.35;23724.03;5044755;28;20232;-62
2023/08/14 10:44:08;;;;;;;3.92;2.70;;;;;;;-141.84;49.95;23766.75;5040646;28;20233;-61
2023/08/14 10:46:38;;;;;;;3.22;2.92;;;;;;;-141.84;49.23;23809.47;5039123;28;20222;-62
2023/08/14 10:49:07;;;;;;;5.60;4.53;;;;;;;-141.84;49.90;23811.50;5026456;28;20247;-62
2023/08/14 10:51:35;;;;;;;5.07;3.40;;;;;;;-141.84;49.90;23856.25;5044882;28;20213;-61
2023/08/14 10:54:11;;;;;;;3.38;3.08;;;;;;;-141.84;49.08;23901.03;5036937;28;20732;-59
2023/08/14 10:56:46;;;;;;;6.15;3.75;;;;;;;-141.84;48.33;23896.94;5045152;28;20286;-62
2023/08/14 10:59:21;;;;;;;4.38;3.03;;;;;;;-141.84;48.17;23907.13;5054195;28;20318;-61
2023/08/14 11:01:52;;;;;;;4.07;3.08;;;;;;;-141.84;48.08;23925.44;5056983;28;20234;-61
2023/08/14 11:04:21;;;;;;;3.90;3.10;;;;;;;-141.84;48.33;23901.03;5044307;28;20708;-62
2023/08/14 11:07:08;;;;;;;3.85;3.15;;;;;;;-141.84;47.92;24029.19;5044969;28;20213;-62
2023/08/14 11:09:39;;;;;;;4.22;3.15;;;;;;;-141.84;47.79;23953.91;5044659;28;20236;-62
2023/08/14 11:12:09;;;;;;;4.47;3.25;;;;;;;-141.84;47.96;24027.16;5041990;28;20233;-61
2023/08/14 11:14:40;;;;;;;3.42;3.05;;;;;;;-141.84;46.71;24082.09;5043646;28;20323;-62
2023/08/14 11:17:10;;;;;;;3.50;3.20;;;;;;;-141.84;46.67;24090.22;5044381;28;20236;-62
2023/08/14 11:19:39;;;;;;;3.28;3.05;;;;;;;-141.84;47.14;24088.19;5044007;28;20474;-61
2023/08/14 11:22:07;;;;;;;3.90;3.20;;;;;;;-141.84;47.50;24071.91;5041034;28;20310;-61
2023/08/14 11:24:37;;;;;;;3.70;3.38;;;;;;;-141.84;46.76;24116.69;5040003;28;20212;-61
2023/08/14 11:27:06;;;;;;;3.63;3.33;;;;;;;-141.84;46.25;24167.56;5040856;28;20229;-63